Time;durP1;ratioP1;P1;durP2;ratioP2;P2;SDS_P1;SDS_P2;PMS_P1;PMS_P2;Temp;Humidity;BMP_temperature;BMP_pressure;BME280_temperature;BME280_humidity;BME280_pressure;Samples;Min_cycle;Max_cycle;Signal;HPM_P1;HPM_P2
2019/10/02 00:00:42;;;;;;;7.1;2.3;;;;;;;;;;;;;
2019/10/02 00:02:44;;;;;;;7;2.1;;;;;;;;;;;;;
2019/10/02 00:05:28;;;;;;;5.1;2;;;;;;;;;;;;;
2019/10/02 00:07:40;;;;;;;6.1;2.1;;;;;;;;;;;;;
2019/10/02 00:10:21;;;;;;;6.7;2;;;;;;;;;;;;;
2019/10/02 00:12:55;;;;;;;7;2.1;;;;;;;;;;;;;
2019/10/02 00:15:22;;;;;;;6.4;2.1;;;;;;;;;;;;;
2019/10/02 00:17:48;;;;;;;5.4;2.1;;;;;;;;;;;;;
2019/10/02 00:20:11;;;;;;;5.6;2;;;;;;;;;;;;;
2019/10/02 00:22:43;;;;;;;5.5;2;;;;;;;;;;;;;
2019/10/02 00:25:07;;;;;;;5.5;1.9;;;;;;;;;;;;;
2019/10/02 00:27:31;;;;;;;6.1;2.1;;;;;;;;;;;;;
2019/10/02 00:30:06;;;;;;;5.1;2;;;;;;;;;;;;;
2019/10/02 00:32:26;;;;;;;5.6;2.2;;;;;;;;;;;;;
2019/10/02 00:34:54;;;;;;;7.4;2.1;;;;;;;;;;;;;
2019/10/02 00:37:19;;;;;;;7.1;2.2;;;;;;;;;;;;;
2019/10/02 00:39:45;;;;;;;4.4;1.9;;;;;;;;;;;;;
2019/10/02 00:42:17;;;;;;;7.1;1.7;;;;;;;;;;;;;
2019/10/02 00:44:39;;;;;;;4.9;1.7;;;;;;;;;;;;;
2019/10/02 00:47:04;;;;;;;4.3;1.4;;;;;;;;;;;;;
2019/10/02 00:49:37;;;;;;;2.9;1.1;;;;;;;;;;;;;
2019/10/02 00:52:00;;;;;;;2.8;0.9;;;;;;;;;;;;;
2019/10/02 00:54:32;;;;;;;3.4;1;;;;;;;;;;;;;
2019/10/02 00:57:04;;;;;;;2.7;0.9;;;;;;;;;;;;;
2019/10/02 00:59:28;;;;;;;3.5;0.8;;;;;;;;;;;;;
2019/10/02 01:01:57;;;;;;;1.6;0.8;;;;;;;;;;;;;
2019/10/02 01:04:20;;;;;;;2;0.9;;;;;;;;;;;;;
2019/10/02 01:06:43;;;;;;;3.4;0.9;;;;;;;;;;;;;
2019/10/02 01:09:09;;;;;;;2.6;0.8;;;;;;;;;;;;;
2019/10/02 01:11:36;;;;;;;4.2;1;;;;;;;;;;;;;
2019/10/02 01:14:02;;;;;;;1.9;0.7;;;;;;;;;;;;;
2019/10/02 01:16:27;;;;;;;1.6;0.8;;;;;;;;;;;;;
2019/10/02 01:19:20;;;;;;;1.6;0.8;;;;;;;;;;;;;
2019/10/02 01:21:47;;;;;;;2.7;1.3;;;;;;;;;;;;;
2019/10/02 01:24:11;;;;;;;2.6;1.2;;;;;;;;;;;;;
2019/10/02 01:26:37;;;;;;;2;0.7;;;;;;;;;;;;;
2019/10/02 01:29:01;;;;;;;1.6;0.8;;;;;;;;;;;;;
2019/10/02 01:31:48;;;;;;;2.3;1;;;;;;;;;;;;;
2019/10/02 01:33:54;;;;;;;2.6;0.8;;;;;;;;;;;;;
2019/10/02 01:36:17;;;;;;;2.2;0.9;;;;;;;;;;;;;
2019/10/02 01:38:43;;;;;;;3;0.8;;;;;;;;;;;;;
2019/10/02 01:41:14;;;;;;;3.8;0.8;;;;;;;;;;;;;
2019/10/02 01:43:39;;;;;;;2.1;0.8;;;;;;;;;;;;;
2019/10/02 01:46:06;;;;;;;4.6;0.8;;;;;;;;;;;;;
2019/10/02 01:50:57;;;;;;;1.3;0.7;;;;;;;;;;;;;
2019/10/02 01:53:19;;;;;;;1.9;0.6;;;;;;;;;;;;;
2019/10/02 01:55:49;;;;;;;2;0.5;;;;;;;;;;;;;
2019/10/02 01:58:12;;;;;;;1.6;0.5;;;;;;;;;;;;;
2019/10/02 02:00:41;;;;;;;2.5;0.6;;;;;;;;;;;;;
2019/10/02 02:03:29;;;;;;;2.3;0.6;;;;;;;;;;;;;
2019/10/02 02:05:49;;;;;;;1.7;0.5;;;;;;;;;;;;;
2019/10/02 02:08:23;;;;;;;1.8;0.5;;;;;;;;;;;;;
2019/10/02 02:10:46;;;;;;;2.7;0.7;;;;;;;;;;;;;
2019/10/02 02:13:12;;;;;;;1.8;0.6;;;;;;;;;;;;;
2019/10/02 02:15:41;;;;;;;3.2;1;;;;;;;;;;;;;
2019/10/02 02:18:12;;;;;;;2.7;0.8;;;;;;;;;;;;;
2019/10/02 02:20:37;;;;;;;3.3;1.1;;;;;;;;;;;;;
2019/10/02 02:23:02;;;;;;;2.3;0.8;;;;;;;;;;;;;
2019/10/02 02:25:29;;;;;;;3.7;1.1;;;;;;;;;;;;;
2019/10/02 02:27:53;;;;;;;4.7;1.2;;;;;;;;;;;;;
2019/10/02 02:30:17;;;;;;;2.6;0.9;;;;;;;;;;;;;
2019/10/02 02:32:48;;;;;;;1.8;0.8;;;;;;;;;;;;;
2019/10/02 02:35:12;;;;;;;1.7;0.6;;;;;;;;;;;;;
2019/10/02 02:37:36;;;;;;;3.5;0.9;;;;;;;;;;;;;
2019/10/02 02:40:09;;;;;;;2.4;0.7;;;;;;;;;;;;;
2019/10/02 02:42:35;;;;;;;2.5;1;;;;;;;;;;;;;
2019/10/02 02:45:03;;;;;;;3.2;0.7;;;;;;;;;;;;;
2019/10/02 02:47:29;;;;;;;2.3;0.6;;;;;;;;;;;;;
2019/10/02 02:49:52;;;;;;;3.1;0.8;;;;;;;;;;;;;
2019/10/02 02:52:21;;;;;;;2.4;0.7;;;;;;;;;;;;;
2019/10/02 02:54:44;;;;;;;2.6;0.7;;;;;;;;;;;;;
2019/10/02 02:57:13;;;;;;;4;1;;;;;;;;;;;;;
2019/10/02 02:59:38;;;;;;;4.4;0.7;;;;;;;;;;;;;
2019/10/02 03:03:55;;;;;;;4.5;0.7;;;;;;;;;;;;;
2019/10/02 03:06:50;;;;;;;1.8;0.6;;;;;;;;;;;;;
2019/10/02 03:09:18;;;;;;;1.7;0.6;;;;;;;;;;;;;
2019/10/02 03:11:42;;;;;;;2.8;0.5;;;;;;;;;;;;;
2019/10/02 03:14:06;;;;;;;2.2;0.7;;;;;;;;;;;;;
2019/10/02 03:16:30;;;;;;;3.7;0.9;;;;;;;;;;;;;
2019/10/02 03:19:00;;;;;;;2.7;0.7;;;;;;;;;;;;;
2019/10/02 03:21:21;;;;;;;1.5;0.6;;;;;;;;;;;;;
2019/10/02 03:23:46;;;;;;;3.1;0.9;;;;;;;;;;;;;
2019/10/02 03:26:23;;;;;;;2.9;0.7;;;;;;;;;;;;;
2019/10/02 03:28:45;;;;;;;2;0.9;;;;;;;;;;;;;
2019/10/02 03:31:10;;;;;;;2.4;1;;;;;;;;;;;;;
2019/10/02 03:33:33;;;;;;;1.7;0.6;;;;;;;;;;;;;
2019/10/02 03:35:59;;;;;;;2.8;0.7;;;;;;;;;;;;;
2019/10/02 03:38:28;;;;;;;3.2;0.7;;;;;;;;;;;;;
2019/10/02 03:40:55;;;;;;;2.1;0.7;;;;;;;;;;;;;
2019/10/02 03:43:21;;;;;;;1.7;0.8;;;;;;;;;;;;;
2019/10/02 03:45:47;;;;;;;2.3;0.8;;;;;;;;;;;;;
2019/10/02 03:48:11;;;;;;;3.7;0.8;;;;;;;;;;;;;
2019/10/02 03:50:38;;;;;;;2.3;1;;;;;;;;;;;;;
2019/10/02 03:53:08;;;;;;;2.5;1;;;;;;;;;;;;;
2019/10/02 03:55:33;;;;;;;2.4;0.6;;;;;;;;;;;;;
2019/10/02 03:58:01;;;;;;;2.1;0.9;;;;;;;;;;;;;
2019/10/02 04:02:33;;;;;;;1.6;0.8;;;;;;;14.15;88.00684;927.8789;;;;
2019/10/02 04:04:59;;;;;;;2.4;1.1;;;;;;;14;89.12695;927.8602;;;;
2019/10/02 04:07:23;;;;;;;2.7;0.7;;;;;;;14.01;88.9209;927.8625;;;;
2019/10/02 04:09:49;;;;;;;4.1;1;;;;;;;14;89.01172;927.8547;;;;
2019/10/02 04:12:11;;;;;;;1.6;0.8;;;;;;;13.89;89.18359;927.8474;;;;
2019/10/02 04:14:41;;;;;;;3.5;1;;;;;;;13.9;89.19824;927.8702;;;;
2019/10/02 04:17:06;;;;;;;4.3;1.1;;;;;;;13.91;89.14258;927.8381;;;;
2019/10/02 04:19:31;;;;;;;2.4;1;;;;;;;13.83;89.79297;927.8557;;;;
2019/10/02 04:22:02;;;;;;;2.4;0.9;;;;;;;13.98;89.05176;927.7255;;;;
2019/10/02 04:24:26;;;;;;;2.6;1.1;;;;;;;13.75;89.85547;927.6859;;;;
2019/10/02 04:26:51;;;;;;;2.6;1;;;;;;;13.8;90.13086;927.6504;;;;
2019/10/02 04:29:22;;;;;;;3.1;0.9;;;;;;;13.99;89.05566;927.658;;;;
2019/10/02 04:31:54;;;;;;;5.2;1.3;;;;;;;14.11;88.75879;927.723;;;;
2019/10/02 04:34:27;;;;;;;5.7;2.1;;;;;;;14.2;87.7168;927.7708;;;;
2019/10/02 04:36:59;;;;;;;4.1;1.6;;;;;;;14.08;88.2334;927.73;;;;
2019/10/02 04:39:39;;;;;;;4.5;1.3;;;;;;;14.23;87.52637;927.6959;;;;
2019/10/02 04:41:54;;;;;;;4.5;1.4;;;;;;;14.25;87.12891;927.6972;;;;
2019/10/02 04:45:09;;;;;;;2.1;1.2;;;;;;;14.22;86.92578;927.6811;;;;
2019/10/02 04:46:42;;;;;;;3.5;1.2;;;;;;;14.2;87.57813;927.6627;;;;
2019/10/02 04:49:11;;;;;;;3.8;1.5;;;;;;;14.34;87.33105;927.6679;;;;
2019/10/02 04:51:38;;;;;;;2;0.8;;;;;;;14.33;87.1543;927.6074;;;;
2019/10/02 04:54:09;;;;;;;0.8;0.7;;;;;;;14.35;87.0791;927.6284;;;;
2019/10/02 04:56:39;;;;;;;4;1.2;;;;;;;14.34;86.9043;927.675;;;;
2019/10/02 04:59:03;;;;;;;1.9;1.2;;;;;;;14.4;86.97266;927.6866;;;;
2019/10/02 05:01:26;;;;;;;3.4;1;;;;;;;14.44;87.05078;927.6046;;;;
2019/10/02 05:03:52;;;;;;;2.9;1.1;;;;;;;14.48;86.19434;927.6188;;;;
2019/10/02 05:06:20;;;;;;;2.8;1;;;;;;;14.4;85.67285;927.6753;;;;
2019/10/02 05:08:45;;;;;;;4.2;1.1;;;;;;;14.16;86.78613;927.7277;;;;
2019/10/02 05:11:10;;;;;;;2.1;0.9;;;;;;;14.16;87.55762;927.7004;;;;
2019/10/02 05:13:37;;;;;;;2.2;1.1;;;;;;;14.34;86.98535;927.7849;;;;
2019/10/02 05:16:02;;;;;;;2.5;1.1;;;;;;;14.4;86.00684;927.8716;;;;
2019/10/02 05:18:29;;;;;;;3.3;1.4;;;;;;;14.53;86.33008;927.9055;;;;
2019/10/02 05:20:58;;;;;;;2.7;0.9;;;;;;;14.55;86.07031;927.9713;;;;
2019/10/02 05:23:22;;;;;;;2.5;1;;;;;;;14.67;85.78223;927.9842;;;;
2019/10/02 05:25:48;;;;;;;3.2;1.1;;;;;;;14.72;85.7793;927.9406;;;;
2019/10/02 05:28:15;;;;;;;1.9;0.9;;;;;;;14.74;85.27539;928.1028;;;;
2019/10/02 05:30:40;;;;;;;2.7;1;;;;;;;14.81;85.41895;928.1068;;;;
2019/10/02 05:33:13;;;;;;;1;0.6;;;;;;;14.73;84.53809;928.1502;;;;
2019/10/02 05:35:42;;;;;;;2.3;0.7;;;;;;;14.74;84.65527;928.2285;;;;
2019/10/02 05:38:04;;;;;;;1;0.6;;;;;;;14.61;84.48047;928.3369;;;;
2019/10/02 05:40:30;;;;;;;1.5;0.7;;;;;;;14.53;85.31738;928.4412;;;;
2019/10/02 05:42:56;;;;;;;1.2;0.9;;;;;;;14.56;85.79492;928.4533;;;;
2019/10/02 05:45:24;;;;;;;2.6;0.8;;;;;;;14.65;84.66992;928.4567;;;;
2019/10/02 05:50:12;;;;;;;3.5;0.9;;;;;;;;;;;;;
2019/10/02 05:52:37;;;;;;;1.9;0.8;;;;;;;;;;;;;
2019/10/02 05:55:06;;;;;;;2.5;1.1;;;;;;;;;;;;;
2019/10/02 05:57:32;;;;;;;2.1;0.9;;;;;;;;;;;;;
2019/10/02 06:00:02;;;;;;;2.6;1;;;;;;;;;;;;;
2019/10/02 06:02:28;;;;;;;2.1;1;;;;;;;;;;;;;
2019/10/02 06:04:57;;;;;;;3.1;1;;;;;;;;;;;;;
2019/10/02 06:08:09;;;;;;;4.3;1.1;;;;;;;;;;;;;
2019/10/02 06:09:44;;;;;;;2.8;1.6;;;;;;;;;;;;;
2019/10/02 06:12:14;;;;;;;2.4;1.1;;;;;;;;;;;;;
2019/10/02 06:14:41;;;;;;;4.1;1.4;;;;;;;;;;;;;
2019/10/02 06:17:07;;;;;;;4.2;1.3;;;;;;;;;;;;;
2019/10/02 06:19:34;;;;;;;3.7;1.4;;;;;;;;;;;;;
2019/10/02 06:21:56;;;;;;;4.8;1.8;;;;;;;;;;;;;
2019/10/02 06:24:22;;;;;;;6;2.9;;;;;;;;;;;;;
2019/10/02 06:26:49;;;;;;;5.2;2.9;;;;;;;;;;;;;
2019/10/02 06:29:17;;;;;;;6.6;2.4;;;;;;;;;;;;;
2019/10/02 06:31:38;;;;;;;3.3;1.7;;;;;;;;;;;;;
2019/10/02 06:34:04;;;;;;;5;1.7;;;;;;;;;;;;;
2019/10/02 06:36:29;;;;;;;3.3;1.5;;;;;;;;;;;;;
2019/10/02 06:38:55;;;;;;;2.1;0.9;;;;;;;;;;;;;
2019/10/02 06:41:20;;;;;;;2.4;1;;;;;;;;;;;;;
2019/10/02 06:43:46;;;;;;;3.1;1.1;;;;;;;;;;;;;
2019/10/02 06:46:16;;;;;;;3.1;1.1;;;;;;;;;;;;;
2019/10/02 06:48:41;;;;;;;2.4;0.8;;;;;;;;;;;;;
2019/10/02 06:51:05;;;;;;;3.8;1.7;;;;;;;;;;;;;
2019/10/02 06:53:32;;;;;;;3;1.3;;;;;;;;;;;;;
2019/10/02 06:55:57;;;;;;;2.2;0.9;;;;;;;;;;;;;
2019/10/02 06:58:21;;;;;;;2.8;1.1;;;;;;;;;;;;;
2019/10/02 07:00:46;;;;;;;2.5;1.1;;;;;;;;;;;;;
2019/10/02 07:03:25;;;;;;;3.2;1;;;;;;;;;;;;;
2019/10/02 07:05:55;;;;;;;4.5;1.1;;;;;;;;;;;;;
2019/10/02 07:08:22;;;;;;;3.5;0.8;;;;;;;;;;;;;
2019/10/02 07:10:52;;;;;;;4.4;1;;;;;;;;;;;;;
2019/10/02 07:13:15;;;;;;;2.6;0.9;;;;;;;;;;;;;
2019/10/02 07:15:39;;;;;;;4.4;0.8;;;;;;;;;;;;;
2019/10/02 07:18:10;;;;;;;7.1;2.9;;;;;;;;;;;;;
2019/10/02 07:20:31;;;;;;;7.7;5.8;;;;;;;;;;;;;
2019/10/02 07:22:56;;;;;;;6.2;3.3;;;;;;;;;;;;;
2019/10/02 07:25:21;;;;;;;6.8;3.7;;;;;;;;;;;;;
2019/10/02 07:27:46;;;;;;;1.9;1;;;;;;;;;;;;;
2019/10/02 07:30:14;;;;;;;2.6;1.1;;;;;;;;;;;;;
2019/10/02 07:32:38;;;;;;;1.3;0.7;;;;;;;;;;;;;
2019/10/02 07:35:03;;;;;;;1.3;0.6;;;;;;;;;;;;;
2019/10/02 07:37:34;;;;;;;1.6;0.9;;;;;;;;;;;;;
2019/10/02 07:39:57;;;;;;;2.2;0.7;;;;;;;;;;;;;
2019/10/02 07:42:21;;;;;;;1.2;0.6;;;;;;;;;;;;;
2019/10/02 07:44:48;;;;;;;3;1;;;;;;;;;;;;;
2019/10/02 07:47:24;;;;;;;2.5;1.3;;;;;;;;;;;;;
2019/10/02 07:49:51;;;;;;;2.5;1;;;;;;;;;;;;;
2019/10/02 07:52:17;;;;;;;3.5;1;;;;;;;;;;;;;
2019/10/02 07:57:23;;;;;;;4.5;1.5;;;;;;;15.77;82.41602;929.1063;;;;
2019/10/02 07:59:44;;;;;;;3.5;0.9;;;;;;;15.85;81.10254;929.1287;;;;
2019/10/02 08:02:10;;;;;;;3.5;1.1;;;;;;;15.92;81.39355;929.1147;;;;
2019/10/02 08:04:50;;;;;;;0.9;0.8;;;;;;;15.99;81.33594;929.1803;;;;
2019/10/02 08:07:07;;;;;;;2.5;0.8;;;;;;;16.02;80.42676;929.1677;;;;
2019/10/02 08:09:37;;;;;;;1.4;0.7;;;;;;;16.07;80.8418;929.145;;;;
2019/10/02 08:12:01;;;;;;;4.2;1.2;;;;;;;16.09;81.06445;929.2095;;;;
2019/10/02 08:14:34;;;;;;;2;0.7;;;;;;;16.07;81.16602;929.2212;;;;
2019/10/02 08:17:05;;;;;;;1.6;0.7;;;;;;;15.8;80.06543;929.27;;;;
2019/10/02 08:19:33;;;;;;;1.4;0.6;;;;;;;15.8;80.20215;929.2797;;;;
2019/10/02 08:21:59;;;;;;;2.1;0.8;;;;;;;15.86;80.82715;929.2689;;;;
2019/10/02 08:24:26;;;;;;;3;1;;;;;;;15.95;81.24805;929.3549;;;;
2019/10/02 08:26:52;;;;;;;2.2;0.8;;;;;;;15.98;80.86133;929.3661;;;;
2019/10/02 08:29:23;;;;;;;2.4;1;;;;;;;15.95;79.97656;929.318;;;;
2019/10/02 08:31:55;;;;;;;3.7;1;;;;;;;15.91;77.65625;929.2836;;;;
2019/10/02 08:34:25;;;;;;;4;1.2;;;;;;;15.77;79.27148;929.36;;;;
2019/10/02 08:36:49;;;;;;;2;1.2;;;;;;;15.8;79.76367;929.2878;;;;
2019/10/02 08:39:38;;;;;;;2.1;1.1;;;;;;;15.63;78.48438;929.3017;;;;
2019/10/02 08:41:45;;;;;;;2;1;;;;;;;15.47;79.89844;929.2913;;;;
2019/10/02 08:44:09;;;;;;;3.9;1.4;;;;;;;15.56;81.69434;929.3542;;;;
2019/10/02 08:46:48;;;;;;;4.4;1.1;;;;;;;15.62;80.28516;929.3107;;;;
2019/10/02 08:49:15;;;;;;;2.7;1.5;;;;;;;15.64;80.97168;929.2869;;;;
2019/10/02 08:51:42;;;;;;;2.1;1;;;;;;;15.59;78.98828;929.2404;;;;
2019/10/02 08:54:19;;;;;;;2.9;1.3;;;;;;;15.7;81.16797;929.2612;;;;
2019/10/02 08:56:46;;;;;;;1.9;1;;;;;;;15.9;79.48047;929.2728;;;;
2019/10/02 08:59:16;;;;;;;2.6;0.9;;;;;;;15.98;79.25293;929.2289;;;;
2019/10/02 09:01:57;;;;;;;2.4;0.8;;;;;;;15.96;78.41699;929.2622;;;;
2019/10/02 09:04:29;;;;;;;2.9;0.9;;;;;;;16.01;80.57617;929.2659;;;;
2019/10/02 09:06:54;;;;;;;2.7;0.8;;;;;;;16.19;79.33691;929.2606;;;;
2019/10/02 09:09:26;;;;;;;2.9;0.6;;;;;;;16.27;75.97363;929.2813;;;;
2019/10/02 09:11:59;;;;;;;1.5;0.6;;;;;;;16.29;77.9082;929.2977;;;;
2019/10/02 09:14:29;;;;;;;1.7;0.8;;;;;;;16.41;78.67188;929.3457;;;;
2019/10/02 09:16:56;;;;;;;1.4;0.7;;;;;;;16.5;77.69238;929.4559;;;;
2019/10/02 09:19:25;;;;;;;1.6;0.7;;;;;;;16.51;78.93262;929.4381;;;;
2019/10/02 09:21:51;;;;;;;2.9;0.5;;;;;;;16.52;77.67285;929.3365;;;;
2019/10/02 09:24:20;;;;;;;1.1;0.5;;;;;;;16.53;77.10547;929.5156;;;;
2019/10/02 09:26:49;;;;;;;2;0.5;;;;;;;16.55;75.08398;929.5647;;;;
2019/10/02 09:29:26;;;;;;;1.7;0.5;;;;;;;16.72;77.9043;929.4941;;;;
2019/10/02 09:32:00;;;;;;;2.4;0.7;;;;;;;16.87;76.69238;929.5799;;;;
2019/10/02 09:34:22;;;;;;;1.1;0.7;;;;;;;16.66;75.12695;929.5864;;;;
2019/10/02 09:36:53;;;;;;;2;0.9;;;;;;;16.71;78.13477;929.6478;;;;
2019/10/02 09:39:27;;;;;;;0.9;0.5;;;;;;;16.58;78.30859;929.6749;;;;
2019/10/02 09:41:56;;;;;;;1.2;0.5;;;;;;;16.76;77.43652;929.5806;;;;
2019/10/02 09:44:24;;;;;;;1.2;0.7;;;;;;;16.85;77.32617;929.6699;;;;
2019/10/02 09:46:58;;;;;;;1.2;0.5;;;;;;;16.96;77.27539;929.6811;;;;
2019/10/02 09:49:29;;;;;;;4.4;0.9;;;;;;;17;76.62207;929.7501;;;;
2019/10/02 09:52:01;;;;;;;2.3;1;;;;;;;16.97;77.48633;929.7508;;;;
2019/10/02 09:54:34;;;;;;;1.5;0.8;;;;;;;17.01;76.1709;929.7208;;;;
2019/10/02 09:56:58;;;;;;;2.7;0.7;;;;;;;17;75.94922;929.7967;;;;
2019/10/02 09:59:30;;;;;;;1.9;0.8;;;;;;;16.95;77.28418;929.8979;;;;
2019/10/02 10:02:09;;;;;;;1.7;0.9;;;;;;;16.81;77.82617;929.9394;;;;
2019/10/02 10:04:37;;;;;;;3.2;1;;;;;;;16.82;77.58789;929.8717;;;;
2019/10/02 10:07:09;;;;;;;2.6;0.8;;;;;;;16.81;77.05176;929.8524;;;;
2019/10/02 10:09:42;;;;;;;1.7;0.7;;;;;;;16.73;76.85254;929.8603;;;;
2019/10/02 10:12:07;;;;;;;2;0.7;;;;;;;16.79;77.48926;929.8755;;;;
2019/10/02 10:14:34;;;;;;;1.3;0.8;;;;;;;16.93;78.19629;929.8261;;;;
2019/10/02 10:17:03;;;;;;;4.4;1.3;;;;;;;16.95;78.05078;929.6959;;;;
2019/10/02 10:19:33;;;;;;;3;1.1;;;;;;;16.93;77.86035;929.7729;;;;
2019/10/02 10:22:05;;;;;;;2;1;;;;;;;16.6;78.42578;929.8336;;;;
2019/10/02 10:24:36;;;;;;;3.5;0.9;;;;;;;16.44;79.98438;929.8635;;;;
2019/10/02 10:27:07;;;;;;;1.2;0.6;;;;;;;16.61;77.80273;929.884;;;;
2019/10/02 10:29:35;;;;;;;2.3;1;;;;;;;16.89;78.35254;929.9839;;;;
2019/10/02 10:32:06;;;;;;;2.8;1.3;;;;;;;16.87;77.95508;930.0577;;;;
2019/10/02 10:34:33;;;;;;;2.2;1;;;;;;;17.05;75.83105;930.0288;;;;
2019/10/02 10:37:03;;;;;;;1.1;0.7;;;;;;;17.07;76.27441;930.0396;;;;
2019/10/02 10:39:32;;;;;;;1.9;0.8;;;;;;;17.14;75.80078;929.9745;;;;
2019/10/02 10:42:09;;;;;;;2.3;0.9;;;;;;;17.21;76.76172;929.9855;;;;
2019/10/02 10:44:28;;;;;;;3;0.8;;;;;;;17.4;75.71777;930.0331;;;;
2019/10/02 10:46:52;;;;;;;1.3;0.6;;;;;;;17.64;75.19043;930.0175;;;;
2019/10/02 10:49:18;;;;;;;1;0.8;;;;;;;17.86;75.66992;930.0589;;;;
2019/10/02 10:51:46;;;;;;;2.2;0.9;;;;;;;18.12;71.99707;930.024;;;;
2019/10/02 10:54:17;;;;;;;2.6;1.1;;;;;;;18.28;74.23047;930.0402;;;;
2019/10/02 10:56:46;;;;;;;1.8;0.9;;;;;;;17.99;72.76465;930.0062;;;;
2019/10/02 10:59:16;;;;;;;1.5;0.7;;;;;;;18.1;71.62109;930.0779;;;;
2019/10/02 11:01:55;;;;;;;1.8;0.8;;;;;;;18.12;69.2666;930.0283;;;;
2019/10/02 11:05:06;;;;;;;2;0.9;;;;;;;17.88;73.80371;929.9671;;;;
2019/10/02 11:07:06;;;;;;;1.9;0.9;;;;;;;18.05;73.34277;930.0048;;;;
2019/10/02 11:09:41;;;;;;;3.8;0.9;;;;;;;18.13;72.71777;930.0056;;;;
2019/10/02 11:12:12;;;;;;;1.6;0.9;;;;;;;18.31;72.12012;929.8812;;;;
2019/10/02 11:14:46;;;;;;;2.3;0.9;;;;;;;18.39;71.35449;929.9455;;;;
2019/10/02 11:17:19;;;;;;;2.9;0.9;;;;;;;18.66;72.375;929.8683;;;;
2019/10/02 11:19:49;;;;;;;1.4;0.6;;;;;;;18.61;67.98145;929.8558;;;;
2019/10/02 11:22:22;;;;;;;1.5;0.7;;;;;;;18.73;71.24512;929.7879;;;;
2019/10/02 11:24:48;;;;;;;3.3;0.8;;;;;;;18.9;67.50391;929.8408;;;;
2019/10/02 11:27:18;;;;;;;0.6;0.6;;;;;;;19.22;64.86133;929.8303;;;;
2019/10/02 11:29:54;;;;;;;2.4;1;;;;;;;19.66;66.41895;929.7087;;;;
2019/10/02 11:32:16;;;;;;;1.9;0.5;;;;;;;20.02;61.00098;929.7475;;;;
2019/10/02 11:34:42;;;;;;;1.3;0.7;;;;;;;20.44;62.75195;929.6729;;;;
2019/10/02 11:37:07;;;;;;;1.7;0.6;;;;;;;21.21;58.52051;929.5631;;;;
2019/10/02 11:39:43;;;;;;;1.5;0.7;;;;;;;21.81;57.41797;929.5524;;;;
2019/10/02 11:42:15;;;;;;;1.3;0.7;;;;;;;22.68;54.66504;929.4983;;;;
2019/10/02 11:44:39;;;;;;;2.1;0.6;;;;;;;23.72;53.27441;929.5556;;;;
2019/10/02 11:47:09;;;;;;;1.2;0.6;;;;;;;24.65;48.92969;929.5209;;;;
2019/10/02 11:49:35;;;;;;;2.6;0.5;;;;;;;25.94;45.84277;929.5153;;;;
2019/10/02 11:52:03;;;;;;;0.5;0.5;;;;;;;26.27;42.49219;929.5125;;;;
2019/10/02 11:54:29;;;;;;;0.6;0.4;;;;;;;25.37;45.1582;929.4984;;;;
2019/10/02 11:57:06;;;;;;;0.3;0.3;;;;;;;24.44;44.27539;929.4557;;;;
2019/10/02 11:59:34;;;;;;;0.7;0.4;;;;;;;25.11;46.13477;929.4905;;;;
2019/10/02 12:02:03;;;;;;;0.8;0.4;;;;;;;24.61;41.73242;929.4136;;;;
2019/10/02 12:04:35;;;;;;;1;0.5;;;;;;;23.5;44.20508;929.4068;;;;
2019/10/02 12:07:10;;;;;;;0.9;0.4;;;;;;;22.02;48.06738;929.3644;;;;
2019/10/02 12:10:05;;;;;;;1.7;0.5;;;;;;;22.32;53.00195;929.3293;;;;
2019/10/02 12:13:04;;;;;;;4.6;0.8;;;;;;;22.09;51.40332;929.3414;;;;
2019/10/02 12:15:36;;;;;;;1.4;0.7;;;;;;;21.17;52.54883;929.3633;;;;
2019/10/02 12:18:07;;;;;;;1.2;0.7;;;;;;;20.93;58.04004;929.287;;;;
2019/10/02 12:20:39;;;;;;;1.1;0.8;;;;;;;21.45;57.41602;929.3417;;;;
2019/10/02 12:23:04;;;;;;;1.5;0.6;;;;;;;21.94;54.0127;929.3299;;;;
2019/10/02 12:25:28;;;;;;;2.5;1.3;;;;;;;21.77;51.95215;929.3382;;;;
2019/10/02 12:28:01;;;;;;;1.3;0.9;;;;;;;21.21;55.06836;929.3403;;;;
2019/10/02 12:31:06;;;;;;;0.3;0.3;;;;;;;21.29;54.86816;929.3268;;;;
2019/10/02 12:33:34;;;;;;;0.9;0.4;;;;;;;23.01;50.18262;929.3511;;;;
2019/10/02 12:36:09;;;;;;;1.9;0.6;;;;;;;22.57;50.48535;929.4086;;;;
2019/10/02 12:38:36;;;;;;;1.1;0.5;;;;;;;21.35;55.21582;929.4755;;;;
2019/10/02 12:41:05;;;;;;;1.5;0.4;;;;;;;20.81;53.58203;929.4258;;;;
2019/10/02 12:43:30;;;;;;;0.6;0.4;;;;;;;21.39;52.11816;929.4451;;;;
2019/10/02 12:46:01;;;;;;;1.7;0.4;;;;;;;24.25;43.78613;929.3406;;;;
2019/10/02 12:48:29;;;;;;;0.7;0.4;;;;;;;27.28;35.60254;929.3381;;;;
2019/10/02 12:50:57;;;;;;;0.7;0.3;;;;;;;27.92;35.13086;929.3172;;;;
2019/10/02 12:53:36;;;;;;;0.3;0.2;;;;;;;27.8;36.35645;929.2642;;;;
2019/10/02 12:56:06;;;;;;;0.2;0.1;;;;;;;27.14;34.42969;929.2239;;;;
2019/10/02 12:58:26;;;;;;;0.2;0.1;;;;;;;26.66;36.71387;929.2157;;;;
2019/10/02 13:00:56;;;;;;;0.3;0.2;;;;;;;24.82;40.7627;929.2651;;;;
2019/10/02 13:03:27;;;;;;;4.7;0.5;;;;;;;23.72;43.27344;929.288;;;;
2019/10/02 13:05:51;;;;;;;1.1;0.4;;;;;;;22.65;45.10645;929.3125;;;;
2019/10/02 13:08:23;;;;;;;1;0.5;;;;;;;22.35;47.72656;929.1877;;;;
2019/10/02 13:10:54;;;;;;;0.6;0.3;;;;;;;20.94;49.54102;929.2899;;;;
2019/10/02 13:13:22;;;;;;;1.1;0.4;;;;;;;19.64;52.33301;929.2855;;;;
2019/10/02 13:15:51;;;;;;;1.8;0.3;;;;;;;19.45;52.57715;929.2206;;;;
2019/10/02 13:19:01;;;;;;;1.5;0.4;;;;;;;21.5;48.57227;929.2017;;;;
2019/10/02 13:20:52;;;;;;;0.2;0.2;;;;;;;22.29;45.48047;929.1262;;;;
2019/10/02 13:23:19;;;;;;;0.4;0.2;;;;;;;23.51;41.07813;929.0723;;;;
2019/10/02 13:25:51;;;;;;;1;0.2;;;;;;;24.28;39.04004;929.0635;;;;
2019/10/02 13:28:24;;;;;;;0.7;0.3;;;;;;;23.67;40.99902;929.1104;;;;
2019/10/02 13:30:58;;;;;;;0.7;0.4;;;;;;;24.93;41.00781;929.0941;;;;
2019/10/02 13:33:21;;;;;;;1.6;0.4;;;;;;;25.34;41.09277;929.1264;;;;
2019/10/02 13:35:48;;;;;;;1.3;0.4;;;;;;;24.71;39.55078;929.0483;;;;
2019/10/02 13:38:21;;;;;;;0.9;0.2;;;;;;;23.61;42.89844;929.0417;;;;
2019/10/02 13:40:55;;;;;;;0.9;0.2;;;;;;;22.05;44.87012;929.0645;;;;
2019/10/02 13:43:35;;;;;;;0.6;0.3;;;;;;;21.19;47.29883;929.0984;;;;
2019/10/02 13:45:58;;;;;;;1.5;0.4;;;;;;;20.64;52.52051;929.0709;;;;
2019/10/02 13:48:30;;;;;;;0.5;0.3;;;;;;;19.8;50.55664;928.981;;;;
2019/10/02 13:50:55;;;;;;;1.1;0.4;;;;;;;19.22;52.34082;928.9908;;;;
2019/10/02 13:53:20;;;;;;;1.3;0.3;;;;;;;19.42;52.03809;929.0276;;;;
2019/10/02 13:55:52;;;;;;;1.7;0.3;;;;;;;19.3;53.94629;929.1259;;;;
2019/10/02 13:58:32;;;;;;;1;0.4;;;;;;;18.63;53.74902;929.2186;;;;
2019/10/02 14:00:57;;;;;;;0.7;0.2;;;;;;;18.14;56.00098;929.1912;;;;
2019/10/02 14:03:29;;;;;;;1.2;0.5;;;;;;;17.99;61.28809;929.2534;;;;
2019/10/02 14:06:07;;;;;;;0.3;0.3;;;;;;;17.37;61.24902;929.236;;;;
2019/10/02 14:08:33;;;;;;;0.7;0.4;;;;;;;17.48;61.20703;929.1794;;;;
2019/10/02 14:11:14;;;;;;;1.5;0.4;;;;;;;19.55;57.77734;929.0472;;;;
2019/10/02 14:13:28;;;;;;;4.6;0.6;;;;;;;20.52;56.8877;929.0289;;;;
2019/10/02 14:16:01;;;;;;;1;0.5;;;;;;;20.28;57.00879;929.024;;;;
2019/10/02 14:18:23;;;;;;;1.1;0.5;;;;;;;19.85;55.96191;929.0388;;;;
2019/10/02 14:20:50;;;;;;;0.9;0.5;;;;;;;19.93;56.20508;929.0908;;;;
2019/10/02 14:23:22;;;;;;;1.5;0.3;;;;;;;19.58;55.8457;929.1124;;;;
2019/10/02 14:25:54;;;;;;;0.6;0.2;;;;;;;19.13;53.92578;929.2275;;;;
2019/10/02 14:28:22;;;;;;;0.5;0.3;;;;;;;18.45;56.09863;929.2455;;;;
2019/10/02 14:30:49;;;;;;;1.1;0.4;;;;;;;18.19;61.93164;929.3492;;;;
2019/10/02 14:33:20;;;;;;;3.5;0.5;;;;;;;18.03;59.08594;929.4102;;;;
2019/10/02 14:35:46;;;;;;;0.3;0.2;;;;;;;17.66;63.12305;929.452;;;;
2019/10/02 14:38:15;;;;;;;0.3;0.2;;;;;;;17.42;59.58496;929.3752;;;;
2019/10/02 14:40:44;;;;;;;0.6;0.4;;;;;;;17.3;62.00488;929.3563;;;;
2019/10/02 14:43:20;;;;;;;0.2;0.1;;;;;;;17.18;58.98535;929.4272;;;;
2019/10/02 14:45:36;;;;;;;1.6;0.5;;;;;;;17.56;60.42969;929.4642;;;;
2019/10/02 14:48:06;;;;;;;0.5;0.3;;;;;;;17.43;56.44434;929.3928;;;;
2019/10/02 14:51:38;;;;;;;0.7;0.3;;;;;;;17.29;57.50391;929.3583;;;;
2019/10/02 14:54:08;;;;;;;2.2;0.4;;;;;;;17.49;62.09082;929.34;;;;
2019/10/02 14:56:40;;;;;;;0.9;0.3;;;;;;;17.53;57.61621;929.3472;;;;
2019/10/02 14:59:09;;;;;;;0.5;0.3;;;;;;;17.76;59.63184;929.3354;;;;
2019/10/02 15:01:31;;;;;;;1.3;0.2;;;;;;;17.4;57.2168;929.3597;;;;
2019/10/02 15:04:01;;;;;;;1.4;0.4;;;;;;;17.34;58.86816;929.3075;;;;
2019/10/02 15:06:30;;;;;;;1;0.2;;;;;;;17.3;56.78711;929.2508;;;;
2019/10/02 15:08:58;;;;;;;0.9;0.3;;;;;;;17.55;59.80078;929.291;;;;
2019/10/02 15:11:31;;;;;;;1.5;0.3;;;;;;;17.72;58.96484;929.2489;;;;
2019/10/02 15:14:02;;;;;;;0.7;0.3;;;;;;;17.74;53.14063;929.2402;;;;
2019/10/02 15:16:28;;;;;;;0.5;0.3;;;;;;;17.68;53.92285;929.2389;;;;
2019/10/02 15:18:57;;;;;;;1.8;0.6;;;;;;;17.79;54.20313;929.25;;;;
2019/10/02 15:21:25;;;;;;;0.9;0.6;;;;;;;17.7;58.17188;929.2126;;;;
2019/10/02 15:23:54;;;;;;;0.4;0.4;;;;;;;17.76;60.5498;929.1703;;;;
2019/10/02 15:26:23;;;;;;;0.4;0.4;;;;;;;17.86;58.75098;929.198;;;;
2019/10/02 15:28:53;;;;;;;1.6;1;;;;;;;17.99;58.31641;929.2564;;;;
2019/10/02 15:31:31;;;;;;;6.2;0.9;;;;;;;17.89;59.55762;929.2646;;;;
2019/10/02 15:33:51;;;;;;;3.9;0.8;;;;;;;17.99;61.61523;929.2347;;;;
2019/10/02 15:37:01;;;;;;;2.8;0.9;;;;;;;17.8;60.84473;929.1392;;;;
2019/10/02 15:39:33;;;;;;;1.7;0.6;;;;;;;17.67;59.82813;929.132;;;;
2019/10/02 15:41:58;;;;;;;2.8;0.5;;;;;;;17.51;61.03711;929.14;;;;
2019/10/02 15:44:24;;;;;;;1.9;0.5;;;;;;;17.6;61.65234;929.2015;;;;
2019/10/02 15:46:53;;;;;;;4.6;0.8;;;;;;;17.47;60.48535;929.3064;;;;
2019/10/02 15:49:28;;;;;;;0.8;0.5;;;;;;;17.38;60.61328;929.3336;;;;
2019/10/02 15:52:01;;;;;;;6.9;1.1;;;;;;;17.36;61.60742;929.4147;;;;
2019/10/02 15:54:29;;;;;;;14.1;11.4;;;;;;;17.35;63.22949;929.5567;;;;
2019/10/02 15:57:05;;;;;;;10;6.6;;;;;;;17.29;64.70508;929.6004;;;;
2019/10/02 15:59:37;;;;;;;5.5;3.7;;;;;;;17.32;66.94727;929.7033;;;;
2019/10/02 16:02:11;;;;;;;3.9;2.7;;;;;;;17.26;69.7793;929.7131;;;;
2019/10/02 16:04:35;;;;;;;2.3;1.1;;;;;;;17.12;68.35449;929.7011;;;;
2019/10/02 16:07:06;;;;;;;14.7;10.7;;;;;;;16.62;67.26953;929.8194;;;;
2019/10/02 16:09:30;;;;;;;22.8;19.8;;;;;;;16.3;62.39648;929.8098;;;;
2019/10/02 16:14:25;;;;;;;12;10.3;;;;;;;16.31;64.67676;929.9565;;;;
2019/10/02 16:16:46;;;;;;;5;3.2;;;;;;;16.37;66.7793;929.9534;;;;
2019/10/02 16:19:19;;;;;;;6.8;6.1;;;;;;;16.45;65.58789;929.8865;;;;
2019/10/02 16:21:58;;;;;;;13.3;11;;;;;;;16.47;67.28027;929.8434;;;;
2019/10/02 16:24:30;;;;;;;9.5;7.8;;;;;;;16.52;64.92773;929.8733;;;;
2019/10/02 16:26:56;;;;;;;12.7;11.5;;;;;;;16.32;68.20703;929.9846;;;;
2019/10/02 16:29:22;;;;;;;3.5;3.2;;;;;;;16.16;70.0791;930.0959;;;;
2019/10/02 16:31:50;;;;;;;3;1;;;;;;;15.85;73.6123;930.1337;;;;
2019/10/02 16:34:17;;;;;;;0.9;0.5;;;;;;;15.82;74.01074;930.1642;;;;
2019/10/02 16:37:07;;;;;;;0.7;0.4;;;;;;;15.72;74.25;930.1526;;;;
2019/10/02 16:39:50;;;;;;;1.6;0.6;;;;;;;15.51;74.64258;930.2762;;;;
2019/10/02 16:42:12;;;;;;;3.2;1.4;;;;;;;15.26;72.49707;930.4637;;;;